Union Center, Illinois
Current Conditions -  °F | °C
As of 12:31 PM on Thursday 27 Nov 2014 (Local Time) from KMTO Reporting Station
Overcast Overcast  
Wind Chill: 17°   Ceiling: 2300
Heat Index: 28°   Visibility: 10mi
Dew Point: 21°   Wind: 14mph
Humidity: 75%   Direction: 310°NW
Pressure: 30.39"   Gusts: NA
Location:  39.2272°N, 88.1132°W
Report Text: KMTO 271831Z AUTO 31012KT 10SM SCT017 BKN023 OVC036 M02/M06 A3039 RMK AO2 SNB1756E07 P0000 T10221061
Loading
Personal Weather Stations






























Interactive Weather Map New forecast layout! Learn more

10-Day Weather Forecast

Advertisements
Track Severe Weather on mobile